sensor_id;sensor_type;location;lat;lon;timestamp;pressure;altitude;pressure_sealevel;temperature;humidity
84592;BME280;74826;50.812;16.038;2024-03-17T00:01:04;97142.84;;;6.35;67.67
84592;BME280;74826;50.812;16.038;2024-03-17T00:03:30;97139.72;;;6.09;68.10
84592;BME280;74826;50.812;16.038;2024-03-17T00:06:00;97131.75;;;5.96;67.81
84592;BME280;74826;50.812;16.038;2024-03-17T00:08:26;97139.63;;;5.96;68.26
84592;BME280;74826;50.812;16.038;2024-03-17T00:10:55;97115.78;;;5.69;68.12
84592;BME280;74826;50.812;16.038;2024-03-17T00:13:21;97076.59;;;5.35;68.50
84592;BME280;74826;50.812;16.038;2024-03-17T00:15:50;97111.94;;;5.32;69.42
84592;BME280;74826;50.812;16.038;2024-03-17T00:18:16;97135.00;;;5.25;70.47
84592;BME280;74826;50.812;16.038;2024-03-17T00:20:41;97108.44;;;5.13;69.75
84592;BME280;74826;50.812;16.038;2024-03-17T00:23:08;97115.66;;;5.26;69.45
84592;BME280;74826;50.812;16.038;2024-03-17T00:25:35;97142.34;;;5.23;69.52
84592;BME280;74826;50.812;16.038;2024-03-17T00:28:03;97160.16;;;5.21;69.69
84592;BME280;74826;50.812;16.038;2024-03-17T00:30:29;97089.44;;;4.69;70.20
84592;BME280;74826;50.812;16.038;2024-03-17T00:32:54;97120.16;;;4.82;70.02
84592;BME280;74826;50.812;16.038;2024-03-17T00:35:20;97082.13;;;4.66;69.42
84592;BME280;74826;50.812;16.038;2024-03-17T00:37:49;97146.63;;;5.14;69.03
84592;BME280;74826;50.812;16.038;2024-03-17T00:40:16;97161.47;;;5.19;69.17
84592;BME280;74826;50.812;16.038;2024-03-17T00:42:42;97176.69;;;5.12;68.76
84592;BME280;74826;50.812;16.038;2024-03-17T00:45:07;97138.44;;;4.87;69.48
84592;BME280;74826;50.812;16.038;2024-03-17T00:47:35;97116.06;;;4.71;69.14
84592;BME280;74826;50.812;16.038;2024-03-17T00:50:00;97125.06;;;4.94;68.98
84592;BME280;74826;50.812;16.038;2024-03-17T00:52:26;97172.78;;;5.14;67.09
84592;BME280;74826;50.812;16.038;2024-03-17T00:54:52;97170.44;;;5.08;68.24
84592;BME280;74826;50.812;16.038;2024-03-17T00:57:19;97162.31;;;5.09;67.22
84592;BME280;74826;50.812;16.038;2024-03-17T00:59:44;97141.47;;;4.99;67.54
84592;BME280;74826;50.812;16.038;2024-03-17T01:02:16;97159.81;;;4.94;67.38
84592;BME280;74826;50.812;16.038;2024-03-17T01:04:42;97112.38;;;4.72;67.98
84592;BME280;74826;50.812;16.038;2024-03-17T01:07:07;97113.50;;;4.61;67.50
84592;BME280;74826;50.812;16.038;2024-03-17T01:09:32;97148.97;;;4.72;67.91
84592;BME280;74826;50.812;16.038;2024-03-17T01:11:58;97168.19;;;4.96;67.32
84592;BME280;74826;50.812;16.038;2024-03-17T01:14:23;97104.09;;;4.65;67.40
84592;BME280;74826;50.812;16.038;2024-03-17T01:16:50;97125.50;;;4.67;67.94
84592;BME280;74826;50.812;16.038;2024-03-17T01:19:16;97158.84;;;4.80;67.52
84592;BME280;74826;50.812;16.038;2024-03-17T01:21:41;97144.25;;;4.74;68.09
84592;BME280;74826;50.812;16.038;2024-03-17T01:24:07;97105.31;;;4.34;68.05
84592;BME280;74826;50.812;16.038;2024-03-17T01:26:32;97075.84;;;4.23;67.66
84592;BME280;74826;50.812;16.038;2024-03-17T01:28:58;97158.41;;;4.68;67.54
84592;BME280;74826;50.812;16.038;2024-03-17T01:31:23;97162.03;;;4.72;66.19
84592;BME280;74826;50.812;16.038;2024-03-17T01:33:50;97104.75;;;4.37;66.18
84592;BME280;74826;50.812;16.038;2024-03-17T01:36:15;97131.84;;;4.56;67.21
84592;BME280;74826;50.812;16.038;2024-03-17T01:38:41;97158.91;;;4.75;67.06
84592;BME280;74826;50.812;16.038;2024-03-17T01:41:06;97129.84;;;4.38;64.89
84592;BME280;74826;50.812;16.038;2024-03-17T01:43:32;97150.38;;;4.60;66.09
84592;BME280;74826;50.812;16.038;2024-03-17T01:45:58;97101.16;;;4.28;66.00
84592;BME280;74826;50.812;16.038;2024-03-17T01:48:24;97092.38;;;4.04;66.82
84592;BME280;74826;50.812;16.038;2024-03-17T01:50:52;97154.06;;;4.53;66.28
84592;BME280;74826;50.812;16.038;2024-03-17T01:53:18;97139.91;;;4.60;65.86
84592;BME280;74826;50.812;16.038;2024-03-17T01:55:46;97146.72;;;4.56;66.68
84592;BME280;74826;50.812;16.038;2024-03-17T01:58:12;97117.81;;;4.37;66.22
84592;BME280;74826;50.812;16.038;2024-03-17T02:00:38;97152.75;;;4.51;66.80
84592;BME280;74826;50.812;16.038;2024-03-17T02:03:08;97122.78;;;4.33;64.86
84592;BME280;74826;50.812;16.038;2024-03-17T02:05:36;97153.25;;;4.53;65.78
84592;BME280;74826;50.812;16.038;2024-03-17T02:08:05;97152.75;;;4.51;66.02
84592;BME280;74826;50.812;16.038;2024-03-17T02:10:35;97149.00;;;4.67;65.69
84592;BME280;74826;50.812;16.038;2024-03-17T02:13:01;97150.66;;;4.58;66.25
84592;BME280;74826;50.812;16.038;2024-03-17T02:15:26;97157.97;;;4.56;66.77
84592;BME280;74826;50.812;16.038;2024-03-17T02:17:52;97116.50;;;4.39;66.03
84592;BME280;74826;50.812;16.038;2024-03-17T02:20:17;97142.31;;;4.51;66.31
84592;BME280;74826;50.812;16.038;2024-03-17T02:22:43;97164.13;;;4.70;66.16
84592;BME280;74826;50.812;16.038;2024-03-17T02:25:09;97111.47;;;4.53;65.89
84592;BME280;74826;50.812;16.038;2024-03-17T02:27:35;97157.31;;;4.79;65.66
84592;BME280;74826;50.812;16.038;2024-03-17T02:30:01;97155.72;;;4.78;64.79
84592;BME280;74826;50.812;16.038;2024-03-17T02:32:26;97134.00;;;4.44;65.02
84592;BME280;74826;50.812;16.038;2024-03-17T02:34:53;97123.59;;;4.34;65.55
84592;BME280;74826;50.812;16.038;2024-03-17T02:37:18;97120.19;;;4.33;64.63
84592;BME280;74826;50.812;16.038;2024-03-17T02:39:44;97162.13;;;4.57;63.85
84592;BME280;74826;50.812;16.038;2024-03-17T02:42:10;97137.91;;;4.46;63.51
84592;BME280;74826;50.812;16.038;2024-03-17T02:44:37;97161.38;;;4.51;64.07
84592;BME280;74826;50.812;16.038;2024-03-17T02:47:04;97170.53;;;4.49;63.81
84592;BME280;74826;50.812;16.038;2024-03-17T02:49:31;97126.84;;;4.01;63.29
84592;BME280;74826;50.812;16.038;2024-03-17T02:52:09;97163.28;;;4.36;62.14
84592;BME280;74826;50.812;16.038;2024-03-17T02:54:35;97176.31;;;4.41;62.56
84592;BME280;74826;50.812;16.038;2024-03-17T02:57:01;97171.56;;;4.53;61.31
84592;BME280;74826;50.812;16.038;2024-03-17T02:59:26;97129.41;;;4.16;61.40
84592;BME280;74826;50.812;16.038;2024-03-17T03:01:52;97172.84;;;4.56;61.63
84592;BME280;74826;50.812;16.038;2024-03-17T03:04:18;97148.13;;;4.38;59.76
84592;BME280;74826;50.812;16.038;2024-03-17T03:06:43;97146.34;;;4.28;61.72
84592;BME280;74826;50.812;16.038;2024-03-17T03:09:09;97104.94;;;4.02;60.00
84592;BME280;74826;50.812;16.038;2024-03-17T03:11:54;97157.59;;;4.19;61.24
84592;BME280;74826;50.812;16.038;2024-03-17T03:14:20;97169.03;;;4.33;60.95
84592;BME280;74826;50.812;16.038;2024-03-17T03:16:45;97153.94;;;4.20;61.26
84592;BME280;74826;50.812;16.038;2024-03-17T03:19:11;97173.44;;;4.42;61.14
84592;BME280;74826;50.812;16.038;2024-03-17T03:21:36;97172.41;;;4.33;61.30
84592;BME280;74826;50.812;16.038;2024-03-17T03:24:01;97130.50;;;4.05;61.04
84592;BME280;74826;50.812;16.038;2024-03-17T03:26:27;97162.28;;;4.27;60.84
84592;BME280;74826;50.812;16.038;2024-03-17T03:28:53;97164.94;;;4.07;59.03
84592;BME280;74826;50.812;16.038;2024-03-17T03:31:20;97174.34;;;4.13;60.32
84592;BME280;74826;50.812;16.038;2024-03-17T03:33:46;97163.91;;;4.03;59.52
84592;BME280;74826;50.812;16.038;2024-03-17T03:36:13;97131.63;;;3.74;60.20
84592;BME280;74826;50.812;16.038;2024-03-17T03:38:39;97174.34;;;4.13;60.33
84592;BME280;74826;50.812;16.038;2024-03-17T03:41:14;97186.31;;;4.24;59.09
84592;BME280;74826;50.812;16.038;2024-03-17T03:43:40;97184.75;;;4.23;59.27
84592;BME280;74826;50.812;16.038;2024-03-17T03:46:07;97176.41;;;4.21;59.56
84592;BME280;74826;50.812;16.038;2024-03-17T03:48:32;97176.41;;;4.21;59.51
84592;BME280;74826;50.812;16.038;2024-03-17T03:51:02;97180.06;;;4.15;59.33
84592;BME280;74826;50.812;16.038;2024-03-17T03:53:28;97175.34;;;4.22;59.53
84592;BME280;74826;50.812;16.038;2024-03-17T03:55:54;97146.94;;;4.05;59.88
84592;BME280;74826;50.812;16.038;2024-03-17T03:58:19;97175.84;;;4.24;59.54
84592;BME280;74826;50.812;16.038;2024-03-17T04:00:46;97174.78;;;4.30;60.33
84592;BME280;74826;50.812;16.038;2024-03-17T04:03:11;97156.56;;;4.15;61.45
84592;BME280;74826;50.812;16.038;2024-03-17T04:05:38;97175.34;;;4.22;62.07
84592;BME280;74826;50.812;16.038;2024-03-17T04:08:04;97168.78;;;4.29;62.31
84592;BME280;74826;50.812;16.038;2024-03-17T04:10:30;97135.72;;;4.05;62.47
84592;BME280;74826;50.812;16.038;2024-03-17T04:12:55;97182.09;;;4.33;61.93
84592;BME280;74826;50.812;16.038;2024-03-17T04:15:22;97141.00;;;3.90;62.72
84592;BME280;74826;50.812;16.038;2024-03-17T04:17:47;97165.97;;;4.06;62.16
84592;BME280;74826;50.812;16.038;2024-03-17T04:20:12;97154.47;;;4.17;61.18
84592;BME280;74826;50.812;16.038;2024-03-17T04:22:41;97170.88;;;4.27;59.94
84592;BME280;74826;50.812;16.038;2024-03-17T04:25:08;97163.09;;;4.17;60.18
84592;BME280;74826;50.812;16.038;2024-03-17T04:27:34;97181.03;;;4.34;60.75
84592;BME280;74826;50.812;16.038;2024-03-17T04:30:00;97183.38;;;4.35;59.90
84592;BME280;74826;50.812;16.038;2024-03-17T04:32:26;97188.63;;;4.25;60.07
84592;BME280;74826;50.812;16.038;2024-03-17T04:34:56;97199.84;;;4.36;60.06
84592;BME280;74826;50.812;16.038;2024-03-17T04:37:21;97162.78;;;4.29;59.36
84592;BME280;74826;50.812;16.038;2024-03-17T04:39:47;97165.13;;;4.30;59.44
84592;BME280;74826;50.812;16.038;2024-03-17T04:42:14;97197.19;;;4.41;59.71
84592;BME280;74826;50.812;16.038;2024-03-17T04:44:41;97206.09;;;4.35;60.89
84592;BME280;74826;50.812;16.038;2024-03-17T04:47:06;97213.22;;;4.14;61.40
84592;BME280;74826;50.812;16.038;2024-03-17T04:49:50;97165.00;;;3.77;61.91
84592;BME280;74826;50.812;16.038;2024-03-17T04:52:15;97147.28;;;3.74;61.93
84592;BME280;74826;50.812;16.038;2024-03-17T04:54:41;97185.84;;;3.97;61.54
84592;BME280;74826;50.812;16.038;2024-03-17T04:57:08;97160.28;;;3.89;61.52
84592;BME280;74826;50.812;16.038;2024-03-17T04:59:34;97220.78;;;4.16;61.09
84592;BME280;74826;50.812;16.038;2024-03-17T05:02:00;97192.59;;;4.23;60.97
84592;BME280;74826;50.812;16.038;2024-03-17T05:04:25;97206.69;;;4.17;61.42
84592;BME280;74826;50.812;16.038;2024-03-17T05:06:51;97182.97;;;3.98;61.07
84592;BME280;74826;50.812;16.038;2024-03-17T05:09:17;97203.31;;;4.11;60.83
84592;BME280;74826;50.812;16.038;2024-03-17T05:11:42;97174.91;;;3.90;61.54
84592;BME280;74826;50.812;16.038;2024-03-17T05:14:08;97206.69;;;4.12;60.63
84592;BME280;74826;50.812;16.038;2024-03-17T05:16:34;97187.94;;;4.05;59.88
84592;BME280;74826;50.812;16.038;2024-03-17T05:19:00;97216.31;;;4.36;60.22
84592;BME280;74826;50.812;16.038;2024-03-17T05:21:25;97233.84;;;4.21;60.11
84592;BME280;74826;50.812;16.038;2024-03-17T05:23:51;97200.47;;;4.03;60.53
84592;BME280;74826;50.812;16.038;2024-03-17T05:26:17;97161.69;;;3.51;60.98
84592;BME280;74826;50.812;16.038;2024-03-17T05:28:43;97131.16;;;3.36;61.78
84592;BME280;74826;50.812;16.038;2024-03-17T05:31:08;97200.25;;;3.79;61.55
84592;BME280;74826;50.812;16.038;2024-03-17T05:33:34;97185.38;;;3.49;61.52
84592;BME280;74826;50.812;16.038;2024-03-17T05:36:01;97212.25;;;3.65;61.40
84592;BME280;74826;50.812;16.038;2024-03-17T05:38:29;97236.50;;;3.86;61.39
84592;BME280;74826;50.812;16.038;2024-03-17T05:40:58;97228.16;;;3.94;61.24
84592;BME280;74826;50.812;16.038;2024-03-17T05:43:26;97222.94;;;3.94;60.89
84592;BME280;74826;50.812;16.038;2024-03-17T05:45:53;97170.25;;;3.61;60.63
84592;BME280;74826;50.812;16.038;2024-03-17T05:48:18;97232.56;;;4.03;61.52
84592;BME280;74826;50.812;16.038;2024-03-17T05:50:44;97237.53;;;4.05;61.33
84592;BME280;74826;50.812;16.038;2024-03-17T05:53:10;97216.41;;;4.01;60.32
84592;BME280;74826;50.812;16.038;2024-03-17T05:55:36;97199.19;;;3.95;60.81
84592;BME280;74826;50.812;16.038;2024-03-17T05:58:01;97240.38;;;4.18;61.62
84592;BME280;74826;50.812;16.038;2024-03-17T06:00:27;97215.63;;;3.91;62.01
84592;BME280;74826;50.812;16.038;2024-03-17T06:02:52;97206.75;;;3.92;61.93
84592;BME280;74826;50.812;16.038;2024-03-17T06:05:18;97178.06;;;3.72;62.31
84592;BME280;74826;50.812;16.038;2024-03-17T06:07:43;97241.59;;;4.46;62.37
84592;BME280;74826;50.812;16.038;2024-03-17T06:10:09;97224.56;;;4.59;61.25
84592;BME280;74826;50.812;16.038;2024-03-17T06:12:34;97249.38;;;4.61;61.24
84592;BME280;74826;50.812;16.038;2024-03-17T06:15:00;97214.44;;;4.42;59.99
84592;BME280;74826;50.812;16.038;2024-03-17T06:17:27;97239.47;;;4.53;60.40
84592;BME280;74826;50.812;16.038;2024-03-17T06:19:52;97229.31;;;4.51;60.18
84592;BME280;74826;50.812;16.038;2024-03-17T06:22:18;97201.44;;;4.27;61.06
84592;BME280;74826;50.812;16.038;2024-03-17T06:24:43;97227.03;;;4.30;60.83
84592;BME280;74826;50.812;16.038;2024-03-17T06:27:09;97226.97;;;4.50;61.38
84592;BME280;74826;50.812;16.038;2024-03-17T06:29:34;97260.22;;;4.93;61.03
84592;BME280;74826;50.812;16.038;2024-03-17T06:31:59;97208.69;;;4.45;61.32
84592;BME280;74826;50.812;16.038;2024-03-17T06:34:25;97231.53;;;4.83;61.31
84592;BME280;74826;50.812;16.038;2024-03-17T06:36:51;97223.69;;;4.78;60.71
84592;BME280;74826;50.812;16.038;2024-03-17T06:39:16;97204.78;;;4.96;59.23
84592;BME280;74826;50.812;16.038;2024-03-17T06:41:42;97194.09;;;4.88;58.38
84592;BME280;74826;50.812;16.038;2024-03-17T06:44:08;97239.03;;;4.95;58.53
84592;BME280;74826;50.812;16.038;2024-03-17T06:46:34;97264.06;;;5.06;58.79
84592;BME280;74826;50.812;16.038;2024-03-17T06:49:00;97211.13;;;4.80;58.64
84592;BME280;74826;50.812;16.038;2024-03-17T06:51:25;97213.19;;;4.88;59.13
84592;BME280;74826;50.812;16.038;2024-03-17T06:53:50;97270.00;;;5.21;58.91
84592;BME280;74826;50.812;16.038;2024-03-17T06:56:16;97235.97;;;5.26;59.54
84592;BME280;74826;50.812;16.038;2024-03-17T06:58:41;97269.78;;;5.57;57.40
84592;BME280;74826;50.812;16.038;2024-03-17T07:01:08;97272.25;;;5.77;58.66
84592;BME280;74826;50.812;16.038;2024-03-17T07:16:21;97275.72;;;6.77;55.37
84592;BME280;74826;50.812;16.038;2024-03-17T07:18:50;97262.44;;;6.21;56.26
84592;BME280;74826;50.812;16.038;2024-03-17T07:21:15;97218.97;;;5.96;56.58
84592;BME280;74826;50.812;16.038;2024-03-17T07:23:40;97235.94;;;5.99;55.93
84592;BME280;74826;50.812;16.038;2024-03-17T07:26:06;97275.63;;;6.16;56.00
84592;BME280;74826;50.812;16.038;2024-03-17T07:28:31;97276.56;;;6.25;55.81
84592;BME280;74826;50.812;16.038;2024-03-17T07:30:58;97264.66;;;6.09;55.95
84592;BME280;74826;50.812;16.038;2024-03-17T07:33:25;97274.91;;;6.05;56.09
84592;BME280;74826;50.812;16.038;2024-03-17T07:38:17;97269.34;;;5.83;55.07
84592;BME280;74826;50.812;16.038;2024-03-17T07:40:43;97275.56;;;5.92;57.06
84592;BME280;74826;50.812;16.038;2024-03-17T07:43:09;97240.28;;;5.80;57.26
84592;BME280;74826;50.812;16.038;2024-03-17T07:45:34;97267.00;;;6.39;55.81
84592;BME280;74826;50.812;16.038;2024-03-17T07:48:00;97284.25;;;6.69;55.67
84592;BME280;74826;50.812;16.038;2024-03-17T07:50:26;97275.84;;;6.90;54.36
84592;BME280;74826;50.812;16.038;2024-03-17T07:52:51;97283.88;;;6.75;53.86
84592;BME280;74826;50.812;16.038;2024-03-17T07:55:17;97280.31;;;6.66;55.05
84592;BME280;74826;50.812;16.038;2024-03-17T07:57:42;97264.41;;;6.58;53.93
84592;BME280;74826;50.812;16.038;2024-03-17T08:00:08;97282.25;;;6.79;54.01
84592;BME280;74826;50.812;16.038;2024-03-17T08:02:47;97285.34;;;6.86;54.82
84592;BME280;74826;50.812;16.038;2024-03-17T08:05:12;97283.38;;;6.73;54.20
84592;BME280;74826;50.812;16.038;2024-03-17T08:07:38;97278.63;;;6.75;55.36
84592;BME280;74826;50.812;16.038;2024-03-17T08:10:04;97271.13;;;6.45;53.67
84592;BME280;74826;50.812;16.038;2024-03-17T08:12:30;97245.22;;;6.44;54.78
84592;BME280;74826;50.812;16.038;2024-03-17T08:14:55;97282.44;;;6.64;54.34
84592;BME280;74826;50.812;16.038;2024-03-17T08:17:21;97277.19;;;6.64;54.72
84592;BME280;74826;50.812;16.038;2024-03-17T08:19:46;97243.41;;;6.39;53.83
84592;BME280;74826;50.812;16.038;2024-03-17T08:22:12;97264.38;;;6.86;53.05
84592;BME280;74826;50.812;16.038;2024-03-17T08:24:38;97278.94;;;6.92;53.29
84592;BME280;74826;50.812;16.038;2024-03-17T08:27:04;97224.28;;;6.81;52.85
84592;BME280;74826;50.812;16.038;2024-03-17T08:29:29;97248.72;;;7.00;54.26
84592;BME280;74826;50.812;16.038;2024-03-17T08:31:54;97264.47;;;7.18;55.08
84592;BME280;74826;50.812;16.038;2024-03-17T08:34:20;97250.28;;;6.77;53.21
84592;BME280;74826;50.812;16.038;2024-03-17T08:36:45;97276.69;;;7.04;53.73
84592;BME280;74826;50.812;16.038;2024-03-17T08:39:11;97240.97;;;7.08;53.76
84592;BME280;74826;50.812;16.038;2024-03-17T08:41:37;97259.50;;;7.36;54.03
84592;BME280;74826;50.812;16.038;2024-03-17T08:44:02;97274.22;;;7.69;50.19
84592;BME280;74826;50.812;16.038;2024-03-17T08:46:27;97267.84;;;7.38;50.54
84592;BME280;74826;50.812;16.038;2024-03-17T08:48:53;97250.91;;;7.11;51.92
84592;BME280;74826;50.812;16.038;2024-03-17T08:51:18;97261.19;;;7.27;52.20
84592;BME280;74826;50.812;16.038;2024-03-17T08:53:43;97249.97;;;7.02;52.25
84592;BME280;74826;50.812;16.038;2024-03-17T08:56:09;97252.91;;;7.19;50.41
84592;BME280;74826;50.812;16.038;2024-03-17T08:58:34;97249.09;;;7.63;50.64
84592;BME280;74826;50.812;16.038;2024-03-17T09:01:05;97219.06;;;7.37;52.33
84592;BME280;74826;50.812;16.038;2024-03-17T09:03:32;97262.59;;;7.38;49.99
84592;BME280;74826;50.812;16.038;2024-03-17T09:05:57;97236.31;;;7.43;50.74
84592;BME280;74826;50.812;16.038;2024-03-17T09:08:24;97258.34;;;7.60;51.00
84592;BME280;74826;50.812;16.038;2024-03-17T09:10:51;97257.69;;;8.00;49.39
84592;BME280;74826;50.812;16.038;2024-03-17T09:13:22;97234.81;;;7.87;48.11
84592;BME280;74826;50.812;16.038;2024-03-17T09:18:22;97266.34;;;8.60;48.04
84592;BME280;74826;50.812;16.038;2024-03-17T09:20:58;97246.09;;;8.61;46.19
84592;BME280;74826;50.812;16.038;2024-03-17T09:23:24;97195.47;;;8.28;45.68
84592;BME280;74826;50.812;16.038;2024-03-17T09:26:01;97254.47;;;8.49;46.81
84592;BME280;74826;50.812;16.038;2024-03-17T09:28:28;97238.09;;;8.39;49.13
84592;BME280;74826;50.812;16.038;2024-03-17T09:30:54;97247.88;;;8.38;48.94
84592;BME280;74826;50.812;16.038;2024-03-17T09:33:24;97246.41;;;8.59;46.83
84592;BME280;74826;50.812;16.038;2024-03-17T09:35:54;97221.75;;;8.42;46.32
84592;BME280;74826;50.812;16.038;2024-03-17T09:38:21;97210.63;;;8.85;45.28
84592;BME280;74826;50.812;16.038;2024-03-17T09:40:47;97200.63;;;9.10;44.06
84592;BME280;74826;50.812;16.038;2024-03-17T09:43:21;97233.72;;;8.88;46.00
84592;BME280;74826;50.812;16.038;2024-03-17T09:45:47;97248.41;;;9.39;47.34
84592;BME280;74826;50.812;16.038;2024-03-17T09:48:15;97238.38;;;9.63;47.07
84592;BME280;74826;50.812;16.038;2024-03-17T09:50:45;97241.13;;;9.80;44.58
84592;BME280;74826;50.812;16.038;2024-03-17T09:53:16;97254.66;;;10.09;43.25
84592;BME280;74826;50.812;16.038;2024-03-17T09:55:43;97254.59;;;10.23;41.97
84592;BME280;74826;50.812;16.038;2024-03-17T09:58:15;97237.47;;;10.42;41.80
84592;BME280;74826;50.812;16.038;2024-03-17T10:00:42;97240.59;;;11.09;43.27
84592;BME280;74826;50.812;16.038;2024-03-17T10:03:07;97246.22;;;11.42;41.15
84592;BME280;74826;50.812;16.038;2024-03-17T10:05:33;97227.72;;;11.08;42.78
84592;BME280;74826;50.812;16.038;2024-03-17T10:07:59;97247.75;;;10.52;41.26
84592;BME280;74826;50.812;16.038;2024-03-17T10:10:24;97244.59;;;9.89;42.35
84592;BME280;74826;50.812;16.038;2024-03-17T10:12:51;97244.88;;;9.79;43.73
84592;BME280;74826;50.812;16.038;2024-03-17T10:15:17;97249.22;;;9.83;43.81
84592;BME280;74826;50.812;16.038;2024-03-17T10:17:43;97208.88;;;10.27;44.37
84592;BME280;74826;50.812;16.038;2024-03-17T10:25:21;97248.22;;;11.28;41.42
84592;BME280;74826;50.812;16.038;2024-03-17T10:27:47;97246.03;;;12.07;41.03
84592;BME280;74826;50.812;16.038;2024-03-17T10:30:18;97221.16;;;11.99;39.01
84592;BME280;74826;50.812;16.038;2024-03-17T10:32:58;97185.94;;;11.70;39.51
84592;BME280;74826;50.812;16.038;2024-03-17T10:35:32;97237.84;;;12.37;41.27
84592;BME280;74826;50.812;16.038;2024-03-17T10:38:00;97231.22;;;12.90;39.56
84592;BME280;74826;50.812;16.038;2024-03-17T10:40:27;97233.25;;;12.55;38.85
84592;BME280;74826;50.812;16.038;2024-03-17T10:42:54;97209.34;;;12.05;38.15
84592;BME280;74826;50.812;16.038;2024-03-17T10:45:20;97249.78;;;11.97;39.44
84592;BME280;74826;50.812;16.038;2024-03-17T10:47:49;97242.31;;;11.99;38.51
84592;BME280;74826;50.812;16.038;2024-03-17T10:50:22;97189.50;;;11.74;38.92
84592;BME280;74826;50.812;16.038;2024-03-17T10:52:49;97187.00;;;11.43;39.81
84592;BME280;74826;50.812;16.038;2024-03-17T10:55:23;97230.53;;;11.54;40.00
84592;BME280;74826;50.812;16.038;2024-03-17T10:57:51;97241.41;;;11.27;41.23
84592;BME280;74826;50.812;16.038;2024-03-17T11:00:20;97243.19;;;10.84;40.34
84592;BME280;74826;50.812;16.038;2024-03-17T11:02:48;97226.44;;;10.88;40.11
84592;BME280;74826;50.812;16.038;2024-03-17T11:05:14;97230.50;;;11.20;39.45
84592;BME280;74826;50.812;16.038;2024-03-17T11:07:41;97232.06;;;11.38;39.92
84592;BME280;74826;50.812;16.038;2024-03-17T11:12:53;97218.94;;;12.18;39.63
84592;BME280;74826;50.812;16.038;2024-03-17T11:17:47;97225.50;;;12.50;38.29
84592;BME280;74826;50.812;16.038;2024-03-17T11:20:15;97164.28;;;11.76;36.93
84592;BME280;74826;50.812;16.038;2024-03-17T11:22:43;97223.94;;;12.49;37.46
84592;BME280;74826;50.812;16.038;2024-03-17T11:25:37;97217.16;;;12.69;36.01
84592;BME280;74826;50.812;16.038;2024-03-17T11:28:04;97212.53;;;12.66;36.55
84592;BME280;74826;50.812;16.038;2024-03-17T11:39:07;97195.63;;;14.39;37.86
84592;BME280;74826;50.812;16.038;2024-03-17T11:41:42;97202.06;;;14.74;35.74
84592;BME280;74826;50.812;16.038;2024-03-17T11:46:54;97191.19;;;14.31;34.41
84592;BME280;74826;50.812;16.038;2024-03-17T11:51:51;97170.19;;;14.38;34.27
84592;BME280;74826;50.812;16.038;2024-03-17T11:54:24;97169.66;;;13.99;35.00
84592;BME280;74826;50.812;16.038;2024-03-17T11:56:52;97190.66;;;13.92;35.02
84592;BME280;74826;50.812;16.038;2024-03-17T11:59:18;97192.69;;;13.42;35.25
84592;BME280;74826;50.812;16.038;2024-03-17T12:01:48;97198.25;;;12.49;34.97
84592;BME280;74826;50.812;16.038;2024-03-17T12:04:15;97191.97;;;12.63;35.91
84592;BME280;74826;50.812;16.038;2024-03-17T12:06:54;97197.13;;;12.21;36.61
84592;BME280;74826;50.812;16.038;2024-03-17T12:12:04;97180.97;;;12.14;36.65
84592;BME280;74826;50.812;16.038;2024-03-17T12:14:30;97182.34;;;12.87;36.83
84592;BME280;74826;50.812;16.038;2024-03-17T12:17:00;97187.28;;;13.18;35.34
84592;BME280;74826;50.812;16.038;2024-03-17T12:19:27;97160.50;;;13.11;34.42
84592;BME280;74826;50.812;16.038;2024-03-17T12:21:53;97175.97;;;13.62;36.59
84592;BME280;74826;50.812;16.038;2024-03-17T12:24:31;97171.56;;;13.66;32.86
84592;BME280;74826;50.812;16.038;2024-03-17T12:26:58;97109.41;;;12.90;34.95
84592;BME280;74826;50.812;16.038;2024-03-17T12:29:39;97163.09;;;12.99;35.37
84592;BME280;74826;50.812;16.038;2024-03-17T12:32:12;97164.47;;;12.46;37.57
84592;BME280;74826;50.812;16.038;2024-03-17T12:34:38;97136.66;;;12.40;37.40
84592;BME280;74826;50.812;16.038;2024-03-17T12:37:04;97167.78;;;12.43;35.82
84592;BME280;74826;50.812;16.038;2024-03-17T12:39:34;97162.72;;;12.59;35.70
84592;BME280;74826;50.812;16.038;2024-03-17T12:44:35;97157.47;;;13.21;34.31
84592;BME280;74826;50.812;16.038;2024-03-17T12:47:04;97170.56;;;13.59;33.54
84592;BME280;74826;50.812;16.038;2024-03-17T12:49:31;97153.03;;;12.34;33.46
84592;BME280;74826;50.812;16.038;2024-03-17T12:51:56;97154.53;;;12.73;33.55
84592;BME280;74826;50.812;16.038;2024-03-17T12:54:26;97159.94;;;12.26;36.28
84592;BME280;74826;50.812;16.038;2024-03-17T12:57:03;97138.13;;;12.59;34.70
84592;BME280;74826;50.812;16.038;2024-03-17T12:59:47;97156.38;;;12.22;41.06
84592;BME280;74826;50.812;16.038;2024-03-17T13:02:31;97110.84;;;12.37;41.18
84592;BME280;74826;50.812;16.038;2024-03-17T13:07:31;97117.75;;;12.50;39.33
84592;BME280;74826;50.812;16.038;2024-03-17T13:09:56;97152.25;;;12.63;38.00
84592;BME280;74826;50.812;16.038;2024-03-17T13:12:22;97140.34;;;12.77;37.37
84592;BME280;74826;50.812;16.038;2024-03-17T13:14:47;97152.88;;;12.89;35.19
84592;BME280;74826;50.812;16.038;2024-03-17T13:17:14;97166.41;;;12.37;34.69
84592;BME280;74826;50.812;16.038;2024-03-17T13:19:46;97160.56;;;11.77;36.41
84592;BME280;74826;50.812;16.038;2024-03-17T13:22:12;97164.81;;;11.10;38.37
84592;BME280;74826;50.812;16.038;2024-03-17T13:24:38;97164.28;;;10.65;38.54
84592;BME280;74826;50.812;16.038;2024-03-17T13:27:07;97119.91;;;10.11;38.96
84592;BME280;74826;50.812;16.038;2024-03-17T13:29:34;97155.63;;;10.82;38.48
84592;BME280;74826;50.812;16.038;2024-03-17T13:32:02;97140.88;;;11.15;37.28
84592;BME280;74826;50.812;16.038;2024-03-17T13:34:28;97157.47;;;11.75;38.48
84592;BME280;74826;50.812;16.038;2024-03-17T13:36:53;97159.72;;;11.94;36.71
84592;BME280;74826;50.812;16.038;2024-03-17T13:39:19;97151.25;;;11.54;35.91
84592;BME280;74826;50.812;16.038;2024-03-17T13:41:47;97151.25;;;11.54;35.06
84592;BME280;74826;50.812;16.038;2024-03-17T13:44:13;97140.41;;;11.13;36.41
84592;BME280;74826;50.812;16.038;2024-03-17T13:46:38;97123.00;;;10.77;38.73